sensor_id;sensor_type;location;lat;lon;timestamp;P1;durP1;ratioP1;P2;durP2;ratioP2
9771;SDS011;4925;52.588;13.370;2022-11-15T00:01:52;28.17;;;18.60;;
9771;SDS011;4925;52.588;13.370;2022-11-15T00:04:17;30.50;;;17.90;;
9771;SDS011;4925;52.588;13.370;2022-11-15T00:06:43;30.10;;;19.23;;
9771;SDS011;4925;52.588;13.370;2022-11-15T00:09:09;30.03;;;18.93;;
9771;SDS011;4925;52.588;13.370;2022-11-15T00:11:34;30.83;;;18.93;;
9771;SDS011;4925;52.588;13.370;2022-11-15T00:14:00;28.70;;;18.33;;
9771;SDS011;4925;52.588;13.370;2022-11-15T00:16:27;28.27;;;18.20;;
9771;SDS011;4925;52.588;13.370;2022-11-15T00:18:53;27.17;;;17.80;;
9771;SDS011;4925;52.588;13.370;2022-11-15T00:21:18;25.33;;;17.30;;
9771;SDS011;4925;52.588;13.370;2022-11-15T00:23:44;29.73;;;17.97;;
9771;SDS011;4925;52.588;13.370;2022-11-15T00:26:11;27.20;;;17.90;;
9771;SDS011;4925;52.588;13.370;2022-11-15T00:28:38;27.90;;;17.50;;
9771;SDS011;4925;52.588;13.370;2022-11-15T00:31:05;29.57;;;18.60;;
9771;SDS011;4925;52.588;13.370;2022-11-15T00:33:34;32.80;;;20.40;;
9771;SDS011;4925;52.588;13.370;2022-11-15T00:36:06;29.20;;;19.20;;
9771;SDS011;4925;52.588;13.370;2022-11-15T00:38:37;28.07;;;18.33;;
9771;SDS011;4925;52.588;13.370;2022-11-15T00:41:05;28.97;;;18.73;;
9771;SDS011;4925;52.588;13.370;2022-11-15T00:43:32;28.97;;;18.43;;
9771;SDS011;4925;52.588;13.370;2022-11-15T00:45:59;28.53;;;18.70;;
9771;SDS011;4925;52.588;13.370;2022-11-15T00:48:25;27.60;;;17.47;;
9771;SDS011;4925;52.588;13.370;2022-11-15T00:50:50;27.50;;;18.53;;
9771;SDS011;4925;52.588;13.370;2022-11-15T00:53:16;31.57;;;18.77;;
9771;SDS011;4925;52.588;13.370;2022-11-15T00:55:42;27.30;;;18.13;;
9771;SDS011;4925;52.588;13.370;2022-11-15T00:58:08;28.53;;;18.23;;
9771;SDS011;4925;52.588;13.370;2022-11-15T01:00:33;32.33;;;18.83;;
9771;SDS011;4925;52.588;13.370;2022-11-15T01:03:00;32.83;;;19.80;;
9771;SDS011;4925;52.588;13.370;2022-11-15T01:05:26;29.70;;;17.93;;
9771;SDS011;4925;52.588;13.370;2022-11-15T01:07:53;28.10;;;18.03;;
9771;SDS011;4925;52.588;13.370;2022-11-15T01:10:22;35.47;;;18.53;;
9771;SDS011;4925;52.588;13.370;2022-11-15T01:12:49;29.67;;;18.30;;
9771;SDS011;4925;52.588;13.370;2022-11-15T01:15:15;28.27;;;18.67;;
9771;SDS011;4925;52.588;13.370;2022-11-15T01:17:41;29.97;;;17.93;;
9771;SDS011;4925;52.588;13.370;2022-11-15T01:20:07;28.93;;;18.00;;
9771;SDS011;4925;52.588;13.370;2022-11-15T01:22:33;28.10;;;17.83;;
9771;SDS011;4925;52.588;13.370;2022-11-15T01:24:58;27.17;;;17.83;;
9771;SDS011;4925;52.588;13.370;2022-11-15T01:27:24;30.17;;;19.30;;
9771;SDS011;4925;52.588;13.370;2022-11-15T01:29:51;28.23;;;17.63;;
9771;SDS011;4925;52.588;13.370;2022-11-15T01:32:17;27.30;;;17.63;;
9771;SDS011;4925;52.588;13.370;2022-11-15T01:34:42;24.40;;;17.37;;
9771;SDS011;4925;52.588;13.370;2022-11-15T01:37:08;28.70;;;18.87;;
9771;SDS011;4925;52.588;13.370;2022-11-15T01:39:34;30.97;;;19.97;;
9771;SDS011;4925;52.588;13.370;2022-11-15T01:41:59;37.67;;;21.87;;
9771;SDS011;4925;52.588;13.370;2022-11-15T01:46:57;31.50;;;19.00;;
9771;SDS011;4925;52.588;13.370;2022-11-15T01:49:25;28.47;;;19.20;;
9771;SDS011;4925;52.588;13.370;2022-11-15T01:51:55;27.67;;;17.60;;
9771;SDS011;4925;52.588;13.370;2022-11-15T01:54:21;30.50;;;17.53;;
9771;SDS011;4925;52.588;13.370;2022-11-15T01:56:50;29.60;;;19.33;;
9771;SDS011;4925;52.588;13.370;2022-11-15T01:59:21;29.23;;;18.43;;
9771;SDS011;4925;52.588;13.370;2022-11-15T02:01:47;29.27;;;18.67;;
9771;SDS011;4925;52.588;13.370;2022-11-15T02:04:15;31.43;;;19.20;;
9771;SDS011;4925;52.588;13.370;2022-11-15T02:06:43;34.17;;;20.70;;
9771;SDS011;4925;52.588;13.370;2022-11-15T02:09:11;35.13;;;20.00;;
9771;SDS011;4925;52.588;13.370;2022-11-15T02:11:37;30.57;;;19.47;;
9771;SDS011;4925;52.588;13.370;2022-11-15T02:14:03;30.17;;;19.47;;
9771;SDS011;4925;52.588;13.370;2022-11-15T02:16:54;31.47;;;18.17;;
9771;SDS011;4925;52.588;13.370;2022-11-15T02:33:05;28.80;;;18.30;;
9771;SDS011;4925;52.588;13.370;2022-11-15T02:41:19;28.13;;;17.67;;
9771;SDS011;4925;52.588;13.370;2022-11-15T02:52:16;28.30;;;17.57;;
9771;SDS011;4925;52.588;13.370;2022-11-15T02:54:42;29.37;;;18.13;;
9771;SDS011;4925;52.588;13.370;2022-11-15T02:57:18;32.47;;;19.83;;
9771;SDS011;4925;52.588;13.370;2022-11-15T03:00:10;31.60;;;19.23;;
9771;SDS011;4925;52.588;13.370;2022-11-15T03:05:15;32.03;;;19.60;;
9771;SDS011;4925;52.588;13.370;2022-11-15T03:18:52;30.37;;;18.73;;
9771;SDS011;4925;52.588;13.370;2022-11-15T03:21:23;31.23;;;19.37;;
9771;SDS011;4925;52.588;13.370;2022-11-15T03:23:52;29.00;;;18.57;;
9771;SDS011;4925;52.588;13.370;2022-11-15T03:26:21;31.53;;;19.40;;
9771;SDS011;4925;52.588;13.370;2022-11-15T03:28:50;33.17;;;19.33;;
9771;SDS011;4925;52.588;13.370;2022-11-15T03:31:20;31.23;;;18.23;;
9771;SDS011;4925;52.588;13.370;2022-11-15T03:34:07;32.90;;;19.20;;
9771;SDS011;4925;52.588;13.370;2022-11-15T03:36:37;34.63;;;19.17;;
9771;SDS011;4925;52.588;13.370;2022-11-15T03:39:05;31.27;;;19.03;;
9771;SDS011;4925;52.588;13.370;2022-11-15T03:41:37;33.03;;;19.67;;
9771;SDS011;4925;52.588;13.370;2022-11-15T03:44:16;31.23;;;19.07;;
9771;SDS011;4925;52.588;13.370;2022-11-15T03:49:23;34.27;;;20.63;;
9771;SDS011;4925;52.588;13.370;2022-11-15T03:51:52;34.17;;;20.20;;
9771;SDS011;4925;52.588;13.370;2022-11-15T03:54:21;31.60;;;19.60;;
9771;SDS011;4925;52.588;13.370;2022-11-15T03:56:46;29.43;;;18.73;;
9771;SDS011;4925;52.588;13.370;2022-11-15T03:59:12;34.77;;;18.43;;
9771;SDS011;4925;52.588;13.370;2022-11-15T04:01:38;27.80;;;18.47;;
9771;SDS011;4925;52.588;13.370;2022-11-15T04:04:03;30.37;;;18.03;;
9771;SDS011;4925;52.588;13.370;2022-11-15T04:06:29;32.43;;;19.67;;
9771;SDS011;4925;52.588;13.370;2022-11-15T04:08:55;31.77;;;18.77;;
9771;SDS011;4925;52.588;13.370;2022-11-15T04:11:20;35.80;;;20.37;;
9771;SDS011;4925;52.588;13.370;2022-11-15T04:13:46;34.47;;;19.90;;
9771;SDS011;4925;52.588;13.370;2022-11-15T04:16:11;36.23;;;21.47;;
9771;SDS011;4925;52.588;13.370;2022-11-15T04:18:37;39.73;;;21.03;;
9771;SDS011;4925;52.588;13.370;2022-11-15T04:21:03;30.17;;;19.00;;
9771;SDS011;4925;52.588;13.370;2022-11-15T04:23:47;31.70;;;19.40;;
9771;SDS011;4925;52.588;13.370;2022-11-15T04:26:31;31.07;;;19.63;;
9771;SDS011;4925;52.588;13.370;2022-11-15T04:28:57;31.77;;;19.70;;
9771;SDS011;4925;52.588;13.370;2022-11-15T04:31:41;30.47;;;18.57;;
9771;SDS011;4925;52.588;13.370;2022-11-15T04:34:07;36.97;;;20.67;;
9771;SDS011;4925;52.588;13.370;2022-11-15T04:36:32;33.23;;;19.57;;
9771;SDS011;4925;52.588;13.370;2022-11-15T04:39:16;29.07;;;19.00;;
9771;SDS011;4925;52.588;13.370;2022-11-15T04:41:42;29.00;;;18.00;;
9771;SDS011;4925;52.588;13.370;2022-11-15T04:44:08;33.97;;;19.10;;
9771;SDS011;4925;52.588;13.370;2022-11-15T04:46:34;28.60;;;18.70;;
9771;SDS011;4925;52.588;13.370;2022-11-15T04:49:00;27.90;;;18.83;;
9771;SDS011;4925;52.588;13.370;2022-11-15T04:51:26;31.40;;;17.90;;
9771;SDS011;4925;52.588;13.370;2022-11-15T04:53:51;31.30;;;18.37;;
9771;SDS011;4925;52.588;13.370;2022-11-15T04:56:17;44.20;;;26.67;;
9771;SDS011;4925;52.588;13.370;2022-11-15T04:58:43;32.97;;;22.03;;
9771;SDS011;4925;52.588;13.370;2022-11-15T05:01:12;29.33;;;18.57;;
9771;SDS011;4925;52.588;13.370;2022-11-15T05:03:39;28.00;;;18.20;;
9771;SDS011;4925;52.588;13.370;2022-11-15T05:06:24;29.97;;;19.03;;
9771;SDS011;4925;52.588;13.370;2022-11-15T05:08:50;32.20;;;19.70;;
9771;SDS011;4925;52.588;13.370;2022-11-15T05:11:16;33.20;;;20.70;;
9771;SDS011;4925;52.588;13.370;2022-11-15T05:13:41;32.33;;;20.07;;
9771;SDS011;4925;52.588;13.370;2022-11-15T05:16:07;33.23;;;20.73;;
9771;SDS011;4925;52.588;13.370;2022-11-15T05:18:33;32.10;;;18.27;;
9771;SDS011;4925;52.588;13.370;2022-11-15T05:21:05;34.77;;;20.23;;
9771;SDS011;4925;52.588;13.370;2022-11-15T05:23:32;31.37;;;19.07;;
9771;SDS011;4925;52.588;13.370;2022-11-15T05:25:59;31.47;;;19.10;;
9771;SDS011;4925;52.588;13.370;2022-11-15T05:28:25;34.10;;;20.37;;
9771;SDS011;4925;52.588;13.370;2022-11-15T05:30:51;30.40;;;18.47;;
9771;SDS011;4925;52.588;13.370;2022-11-15T05:33:17;27.30;;;18.30;;
9771;SDS011;4925;52.588;13.370;2022-11-15T05:35:45;31.70;;;19.47;;
9771;SDS011;4925;52.588;13.370;2022-11-15T05:38:15;31.07;;;19.70;;
9771;SDS011;4925;52.588;13.370;2022-11-15T05:40:41;31.50;;;19.20;;
9771;SDS011;4925;52.588;13.370;2022-11-15T05:43:06;31.73;;;19.47;;
9771;SDS011;4925;52.588;13.370;2022-11-15T05:45:32;32.83;;;21.30;;
9771;SDS011;4925;52.588;13.370;2022-11-15T05:48:00;33.47;;;19.03;;
9771;SDS011;4925;52.588;13.370;2022-11-15T05:50:29;29.83;;;18.87;;
9771;SDS011;4925;52.588;13.370;2022-11-15T05:52:55;32.00;;;19.57;;
9771;SDS011;4925;52.588;13.370;2022-11-15T05:55:21;33.53;;;18.90;;
9771;SDS011;4925;52.588;13.370;2022-11-15T05:57:47;37.23;;;20.30;;
9771;SDS011;4925;52.588;13.370;2022-11-15T06:00:13;38.43;;;20.90;;
9771;SDS011;4925;52.588;13.370;2022-11-15T06:02:39;38.30;;;21.87;;
9771;SDS011;4925;52.588;13.370;2022-11-15T06:05:05;32.00;;;19.30;;
9771;SDS011;4925;52.588;13.370;2022-11-15T06:07:30;32.97;;;19.77;;
9771;SDS011;4925;52.588;13.370;2022-11-15T06:09:56;33.00;;;19.37;;
9771;SDS011;4925;52.588;13.370;2022-11-15T06:12:22;29.47;;;18.63;;
9771;SDS011;4925;52.588;13.370;2022-11-15T06:14:48;35.67;;;20.20;;
9771;SDS011;4925;52.588;13.370;2022-11-15T06:17:14;31.00;;;20.47;;
9771;SDS011;4925;52.588;13.370;2022-11-15T06:19:40;33.97;;;20.20;;
9771;SDS011;4925;52.588;13.370;2022-11-15T06:22:05;34.83;;;20.43;;
9771;SDS011;4925;52.588;13.370;2022-11-15T06:24:31;39.17;;;21.70;;
9771;SDS011;4925;52.588;13.370;2022-11-15T06:26:57;38.17;;;22.27;;
9771;SDS011;4925;52.588;13.370;2022-11-15T06:29:23;37.27;;;21.53;;
9771;SDS011;4925;52.588;13.370;2022-11-15T06:31:49;37.43;;;21.67;;
9771;SDS011;4925;52.588;13.370;2022-11-15T06:34:15;34.30;;;20.70;;
9771;SDS011;4925;52.588;13.370;2022-11-15T06:36:41;36.60;;;20.70;;
9771;SDS011;4925;52.588;13.370;2022-11-15T06:39:07;35.70;;;21.20;;
9771;SDS011;4925;52.588;13.370;2022-11-15T06:41:35;30.83;;;19.77;;
9771;SDS011;4925;52.588;13.370;2022-11-15T06:44:01;31.60;;;19.60;;
9771;SDS011;4925;52.588;13.370;2022-11-15T06:46:28;29.37;;;18.60;;
9771;SDS011;4925;52.588;13.370;2022-11-15T06:48:53;33.00;;;20.37;;
9771;SDS011;4925;52.588;13.370;2022-11-15T06:51:19;30.97;;;18.87;;
9771;SDS011;4925;52.588;13.370;2022-11-15T06:53:45;32.97;;;20.53;;
9771;SDS011;4925;52.588;13.370;2022-11-15T06:56:11;30.47;;;19.20;;
9771;SDS011;4925;52.588;13.370;2022-11-15T06:58:36;32.43;;;20.37;;
9771;SDS011;4925;52.588;13.370;2022-11-15T07:01:04;34.47;;;20.33;;
9771;SDS011;4925;52.588;13.370;2022-11-15T07:03:34;36.03;;;20.27;;
9771;SDS011;4925;52.588;13.370;2022-11-15T07:06:01;35.17;;;19.97;;
9771;SDS011;4925;52.588;13.370;2022-11-15T07:08:27;35.27;;;20.70;;
9771;SDS011;4925;52.588;13.370;2022-11-15T07:10:54;34.33;;;20.07;;
9771;SDS011;4925;52.588;13.370;2022-11-15T07:13:26;33.77;;;19.93;;
9771;SDS011;4925;52.588;13.370;2022-11-15T07:15:53;38.80;;;20.93;;
9771;SDS011;4925;52.588;13.370;2022-11-15T07:18:19;34.30;;;20.83;;
9771;SDS011;4925;52.588;13.370;2022-11-15T07:20:45;34.50;;;20.63;;
9771;SDS011;4925;52.588;13.370;2022-11-15T07:23:11;31.30;;;19.03;;
9771;SDS011;4925;52.588;13.370;2022-11-15T07:25:37;33.13;;;20.17;;
9771;SDS011;4925;52.588;13.370;2022-11-15T07:28:03;34.93;;;22.00;;
9771;SDS011;4925;52.588;13.370;2022-11-15T07:30:29;32.03;;;21.57;;
9771;SDS011;4925;52.588;13.370;2022-11-15T07:32:58;40.37;;;20.77;;
9771;SDS011;4925;52.588;13.370;2022-11-15T07:35:26;36.63;;;21.67;;
9771;SDS011;4925;52.588;13.370;2022-11-15T07:38:02;40.17;;;20.67;;
9771;SDS011;4925;52.588;13.370;2022-11-15T07:40:28;42.23;;;19.17;;
9771;SDS011;4925;52.588;13.370;2022-11-15T07:43:03;33.33;;;21.27;;
9771;SDS011;4925;52.588;13.370;2022-11-15T07:45:32;34.10;;;20.83;;
9771;SDS011;4925;52.588;13.370;2022-11-15T07:48:01;32.73;;;18.87;;
9771;SDS011;4925;52.588;13.370;2022-11-15T07:50:27;35.90;;;20.03;;
9771;SDS011;4925;52.588;13.370;2022-11-15T07:52:56;47.90;;;26.33;;
9771;SDS011;4925;52.588;13.370;2022-11-15T07:55:23;34.97;;;22.50;;
9771;SDS011;4925;52.588;13.370;2022-11-15T07:57:50;30.03;;;20.77;;
9771;SDS011;4925;52.588;13.370;2022-11-15T08:00:15;33.43;;;20.83;;
9771;SDS011;4925;52.588;13.370;2022-11-15T08:02:43;31.60;;;20.50;;
9771;SDS011;4925;52.588;13.370;2022-11-15T08:05:09;35.47;;;19.70;;
9771;SDS011;4925;52.588;13.370;2022-11-15T08:07:35;32.73;;;20.23;;
9771;SDS011;4925;52.588;13.370;2022-11-15T08:10:00;34.27;;;21.00;;
9771;SDS011;4925;52.588;13.370;2022-11-15T08:12:29;34.53;;;22.03;;
9771;SDS011;4925;52.588;13.370;2022-11-15T08:14:56;33.67;;;21.03;;
9771;SDS011;4925;52.588;13.370;2022-11-15T08:17:22;30.50;;;21.20;;
9771;SDS011;4925;52.588;13.370;2022-11-15T08:19:50;37.60;;;20.37;;
9771;SDS011;4925;52.588;13.370;2022-11-15T08:22:16;33.43;;;21.67;;
9771;SDS011;4925;52.588;13.370;2022-11-15T08:24:43;38.27;;;22.10;;
9771;SDS011;4925;52.588;13.370;2022-11-15T08:27:09;37.00;;;22.10;;
9771;SDS011;4925;52.588;13.370;2022-11-15T08:29:43;32.80;;;20.80;;
9771;SDS011;4925;52.588;13.370;2022-11-15T08:32:10;32.17;;;20.57;;
9771;SDS011;4925;52.588;13.370;2022-11-15T08:34:36;34.90;;;20.03;;
9771;SDS011;4925;52.588;13.370;2022-11-15T08:37:02;30.77;;;19.37;;
9771;SDS011;4925;52.588;13.370;2022-11-15T08:39:29;32.17;;;20.00;;
9771;SDS011;4925;52.588;13.370;2022-11-15T08:41:54;27.90;;;18.90;;
9771;SDS011;4925;52.588;13.370;2022-11-15T08:44:20;28.40;;;19.13;;
9771;SDS011;4925;52.588;13.370;2022-11-15T08:46:46;31.37;;;18.70;;
9771;SDS011;4925;52.588;13.370;2022-11-15T08:49:12;33.60;;;19.27;;
9771;SDS011;4925;52.588;13.370;2022-11-15T08:51:38;35.80;;;18.57;;
9771;SDS011;4925;52.588;13.370;2022-11-15T08:54:04;24.07;;;16.70;;
9771;SDS011;4925;52.588;13.370;2022-11-15T08:56:30;24.50;;;16.63;;
9771;SDS011;4925;52.588;13.370;2022-11-15T08:58:55;23.30;;;17.03;;
9771;SDS011;4925;52.588;13.370;2022-11-15T09:01:21;28.87;;;16.90;;
9771;SDS011;4925;52.588;13.370;2022-11-15T09:03:47;24.93;;;16.17;;
9771;SDS011;4925;52.588;13.370;2022-11-15T09:06:13;22.43;;;15.90;;
9771;SDS011;4925;52.588;13.370;2022-11-15T09:08:40;23.37;;;16.27;;
9771;SDS011;4925;52.588;13.370;2022-11-15T09:11:06;24.27;;;15.70;;
9771;SDS011;4925;52.588;13.370;2022-11-15T09:13:34;23.47;;;15.80;;
9771;SDS011;4925;52.588;13.370;2022-11-15T09:16:02;22.57;;;15.53;;
9771;SDS011;4925;52.588;13.370;2022-11-15T09:18:28;22.77;;;15.97;;
9771;SDS011;4925;52.588;13.370;2022-11-15T09:20:55;25.00;;;16.43;;
9771;SDS011;4925;52.588;13.370;2022-11-15T09:23:22;24.30;;;15.40;;
9771;SDS011;4925;52.588;13.370;2022-11-15T09:25:48;21.93;;;15.90;;
9771;SDS011;4925;52.588;13.370;2022-11-15T09:28:14;22.43;;;15.37;;
9771;SDS011;4925;52.588;13.370;2022-11-15T09:30:39;21.10;;;15.00;;
9771;SDS011;4925;52.588;13.370;2022-11-15T09:33:09;21.90;;;15.27;;
9771;SDS011;4925;52.588;13.370;2022-11-15T09:35:36;22.43;;;15.40;;
9771;SDS011;4925;52.588;13.370;2022-11-15T09:38:02;20.37;;;14.83;;
9771;SDS011;4925;52.588;13.370;2022-11-15T09:40:29;23.47;;;13.87;;
9771;SDS011;4925;52.588;13.370;2022-11-15T09:48:38;17.27;;;12.97;;
9771;SDS011;4925;52.588;13.370;2022-11-15T09:51:18;25.37;;;14.67;;
9771;SDS011;4925;52.588;13.370;2022-11-15T09:56:50;20.77;;;14.60;;
9771;SDS011;4925;52.588;13.370;2022-11-15T10:02:12;21.07;;;14.27;;
9771;SDS011;4925;52.588;13.370;2022-11-15T10:04:46;18.07;;;13.00;;
9771;SDS011;4925;52.588;13.370;2022-11-15T10:07:14;20.53;;;14.13;;
9771;SDS011;4925;52.588;13.370;2022-11-15T10:09:53;17.67;;;12.83;;
9771;SDS011;4925;52.588;13.370;2022-11-15T10:12:22;19.47;;;13.67;;
9771;SDS011;4925;52.588;13.370;2022-11-15T10:14:49;17.97;;;13.70;;
9771;SDS011;4925;52.588;13.370;2022-11-15T10:19:50;16.87;;;12.53;;
9771;SDS011;4925;52.588;13.370;2022-11-15T10:22:41;19.97;;;12.90;;
9771;SDS011;4925;52.588;13.370;2022-11-15T10:27:43;17.70;;;12.70;;
9771;SDS011;4925;52.588;13.370;2022-11-15T10:30:13;21.63;;;12.77;;
9771;SDS011;4925;52.588;13.370;2022-11-15T10:32:41;20.30;;;12.53;;
9771;SDS011;4925;52.588;13.370;2022-11-15T10:38:08;17.13;;;12.60;;
9771;SDS011;4925;52.588;13.370;2022-11-15T10:40:36;16.30;;;12.33;;
9771;SDS011;4925;52.588;13.370;2022-11-15T10:43:05;19.07;;;12.47;;
9771;SDS011;4925;52.588;13.370;2022-11-15T10:45:38;15.70;;;11.40;;
9771;SDS011;4925;52.588;13.370;2022-11-15T10:50:39;19.30;;;12.43;;
9771;SDS011;4925;52.588;13.370;2022-11-15T10:55:57;16.03;;;12.43;;
9771;SDS011;4925;52.588;13.370;2022-11-15T11:03:45;26.70;;;13.50;;
9771;SDS011;4925;52.588;13.370;2022-11-15T11:06:30;16.07;;;12.03;;
9771;SDS011;4925;52.588;13.370;2022-11-15T11:09:23;17.33;;;13.10;;
9771;SDS011;4925;52.588;13.370;2022-11-15T11:12:05;17.47;;;11.63;;
9771;SDS011;4925;52.588;13.370;2022-11-15T11:14:35;15.40;;;12.23;;
9771;SDS011;4925;52.588;13.370;2022-11-15T11:17:23;15.80;;;11.77;;
9771;SDS011;4925;52.588;13.370;2022-11-15T11:28:33;18.33;;;11.33;;
9771;SDS011;4925;52.588;13.370;2022-11-15T11:34:35;19.03;;;11.57;;
9771;SDS011;4925;52.588;13.370;2022-11-15T11:37:24;17.43;;;11.97;;
9771;SDS011;4925;52.588;13.370;2022-11-15T11:40:16;19.97;;;12.23;;
9771;SDS011;4925;52.588;13.370;2022-11-15T11:48:33;14.83;;;11.20;;
9771;SDS011;4925;52.588;13.370;2022-11-15T11:51:20;16.47;;;12.70;;
9771;SDS011;4925;52.588;13.370;2022-11-15T11:54:03;22.40;;;12.73;;
9771;SDS011;4925;52.588;13.370;2022-11-15T11:56:37;20.37;;;12.03;;
9771;SDS011;4925;52.588;13.370;2022-11-15T12:01:48;19.03;;;12.40;;
9771;SDS011;4925;52.588;13.370;2022-11-15T12:07:04;14.77;;;11.20;;
9771;SDS011;4925;52.588;13.370;2022-11-15T12:10:14;13.53;;;10.63;;
9771;SDS011;4925;52.588;13.370;2022-11-15T12:15:18;17.33;;;12.10;;
9771;SDS011;4925;52.588;13.370;2022-11-15T12:17:47;20.20;;;12.17;;
9771;SDS011;4925;52.588;13.370;2022-11-15T12:20:21;19.13;;;12.33;;
9771;SDS011;4925;52.588;13.370;2022-11-15T12:28:02;15.47;;;11.47;;
9771;SDS011;4925;52.588;13.370;2022-11-15T12:30:43;14.80;;;11.73;;
9771;SDS011;4925;52.588;13.370;2022-11-15T12:33:28;17.60;;;12.43;;
9771;SDS011;4925;52.588;13.370;2022-11-15T12:35:59;17.03;;;12.33;;
9771;SDS011;4925;52.588;13.370;2022-11-15T12:41:24;15.73;;;11.90;;
9771;SDS011;4925;52.588;13.370;2022-11-15T12:43:51;18.77;;;12.57;;
9771;SDS011;4925;52.588;13.370;2022-11-15T12:46:21;15.23;;;11.10;;
9771;SDS011;4925;52.588;13.370;2022-11-15T12:48:51;16.93;;;11.80;;
9771;SDS011;4925;52.588;13.370;2022-11-15T12:51:19;14.73;;;11.77;;
9771;SDS011;4925;52.588;13.370;2022-11-15T12:53:46;17.10;;;12.43;;
9771;SDS011;4925;52.588;13.370;2022-11-15T12:58:42;17.47;;;11.87;;
9771;SDS011;4925;52.588;13.370;2022-11-15T13:01:59;15.40;;;11.40;;
9771;SDS011;4925;52.588;13.370;2022-11-15T13:06:45;15.90;;;12.47;;
9771;SDS011;4925;52.588;13.370;2022-11-15T13:19:45;16.97;;;11.50;;
9771;SDS011;4925;52.588;13.370;2022-11-15T13:22:13;15.93;;;10.50;;
9771;SDS011;4925;52.588;13.370;2022-11-15T13:25:14;14.03;;;11.33;;
9771;SDS011;4925;52.588;13.370;2022-11-15T13:27:44;14.20;;;11.07;;
9771;SDS011;4925;52.588;13.370;2022-11-15T13:30:27;14.87;;;10.90;;
9771;SDS011;4925;52.588;13.370;2022-11-15T13:32:54;12.57;;;10.57;;
9771;SDS011;4925;52.588;13.370;2022-11-15T13:35:22;16.57;;;10.70;;
9771;SDS011;4925;52.588;13.370;2022-11-15T13:37:49;14.87;;;9.97;;
9771;SDS011;4925;52.588;13.370;2022-11-15T13:42:47;17.00;;;11.10;;
9771;SDS011;4925;52.588;13.370;2022-11-15T13:45:13;16.20;;;11.50;;
9771;SDS011;4925;52.588;13.370;2022-11-15T13:47:41;18.47;;;11.47;;
9771;SDS011;4925;52.588;13.370;2022-11-15T13:50:11;17.47;;;11.97;;
9771;SDS011;4925;52.588;13.370;2022-11-15T13:52:37;17.23;;;11.53;;
9771;SDS011;4925;52.588;13.370;2022-11-15T13:55:15;14.90;;;11.47;;
9771;SDS011;4925;52.588;13.370;2022-11-15T13:57:44;14.50;;;10.37;;
9771;SDS011;4925;52.588;13.370;2022-11-15T14:02:57;20.57;;;11.73;;
9771;SDS011;4925;52.588;13.370;2022-11-15T14:05:30;17.33;;;11.80;;
9771;SDS011;4925;52.588;13.370;2022-11-15T14:07:57;20.73;;;12.87;;
9771;SDS011;4925;52.588;13.370;2022-11-15T14:10:33;17.90;;;12.53;;
9771;SDS011;4925;52.588;13.370;2022-11-15T14:13:01;17.57;;;13.00;;
9771;SDS011;4925;52.588;13.370;2022-11-15T14:15:35;20.70;;;13.00;;
9771;SDS011;4925;52.588;13.370;2022-11-15T14:18:04;17.40;;;13.27;;
9771;SDS011;4925;52.588;13.370;2022-11-15T14:20:32;21.97;;;13.97;;
9771;SDS011;4925;52.588;13.370;2022-11-15T14:23:01;18.13;;;13.13;;
9771;SDS011;4925;52.588;13.370;2022-11-15T14:25:56;19.50;;;12.87;;
9771;SDS011;4925;52.588;13.370;2022-11-15T14:30:48;23.70;;;14.50;;
